createdAt,value
2022-09-25T00:01:19.240Z,10.40
2022-09-25T00:03:47.312Z,10.40
2022-09-25T00:06:18.460Z,10.40
2022-09-25T00:08:46.562Z,10.40
2022-09-25T00:11:16.560Z,10.40
2022-09-25T00:13:45.953Z,10.40
2022-09-25T00:16:15.800Z,10.40
2022-09-25T00:19:01.293Z,10.40
2022-09-25T00:21:31.912Z,10.40
2022-09-25T00:24:01.058Z,10.40
2022-09-25T00:26:30.235Z,10.50
2022-09-25T00:28:59.011Z,10.50
2022-09-25T00:31:27.033Z,10.50
2022-09-25T00:33:57.787Z,10.50
2022-09-25T00:36:25.789Z,10.50
2022-09-25T00:38:55.070Z,10.40
2022-09-25T00:41:25.767Z,10.40
2022-09-25T00:43:56.272Z,10.40
2022-09-25T00:46:28.778Z,10.40
2022-09-25T00:49:01.769Z,10.40
2022-09-25T00:51:38.445Z,10.30
2022-09-25T00:54:10.433Z,10.30
2022-09-25T00:56:42.282Z,10.30
2022-09-25T00:59:15.121Z,10.20
2022-09-25T01:01:43.192Z,10.10
2022-09-25T01:04:13.084Z,10.10
2022-09-25T01:06:42.110Z,10.00
2022-09-25T01:09:11.907Z,10.00
2022-09-25T01:11:40.563Z,9.90
2022-09-25T01:14:10.158Z,9.80
2022-09-25T01:16:46.295Z,9.70
2022-09-25T01:19:27.269Z,9.60
2022-09-25T01:22:01.515Z,9.60
2022-09-25T01:24:45.500Z,9.50
2022-09-25T01:27:36.115Z,9.40
2022-09-25T01:30:09.749Z,9.30
2022-09-25T01:32:52.556Z,9.30
2022-09-25T01:35:26.587Z,9.20
2022-09-25T01:37:59.939Z,9.20
2022-09-25T01:40:33.700Z,9.10
2022-09-25T01:43:09.427Z,9.10
2022-09-25T01:45:44.186Z,9.10
2022-09-25T01:48:14.997Z,9.00
2022-09-25T01:50:48.178Z,9.00
2022-09-25T01:53:21.367Z,8.90
2022-09-25T01:55:54.697Z,8.90
2022-09-25T01:58:28.437Z,8.80
2022-09-25T02:01:02.815Z,8.80
2022-09-25T02:03:36.790Z,8.80
2022-09-25T02:06:09.997Z,8.80
2022-09-25T02:08:43.963Z,8.70
2022-09-25T02:11:14.233Z,8.70
2022-09-25T02:13:49.466Z,8.60
2022-09-25T02:16:22.992Z,8.60
2022-09-25T02:19:08.871Z,8.60
2022-09-25T02:21:45.396Z,8.60
2022-09-25T02:24:21.520Z,8.60
2022-09-25T02:26:50.775Z,8.60
2022-09-25T02:29:19.685Z,8.60
2022-09-25T02:31:53.500Z,8.60
2022-09-25T02:34:21.900Z,8.60
2022-09-25T02:36:50.134Z,8.60
2022-09-25T02:39:21.176Z,8.60
2022-09-25T02:42:08.705Z,8.60
2022-09-25T02:44:46.621Z,8.60
2022-09-25T02:47:25.203Z,8.60
2022-09-25T02:50:02.456Z,8.50
2022-09-25T02:52:36.929Z,8.50
2022-09-25T02:55:08.543Z,8.50
2022-09-25T02:57:42.564Z,8.40
2022-09-25T03:00:11.881Z,8.40
2022-09-25T03:02:45.777Z,8.40
2022-09-25T03:05:18.154Z,8.40
2022-09-25T03:08:03.422Z,8.40
2022-09-25T03:10:33.477Z,8.40
2022-09-25T03:13:15.042Z,8.40
2022-09-25T03:15:45.367Z,8.40
2022-09-25T03:18:15.243Z,8.30
2022-09-25T03:20:43.192Z,8.40
2022-09-25T03:23:11.600Z,8.40
2022-09-25T03:25:39.832Z,8.40
2022-09-25T03:28:11.616Z,8.40
2022-09-25T03:30:41.027Z,8.30
2022-09-25T03:33:10.349Z,8.30
2022-09-25T03:35:40.213Z,8.20
2022-09-25T03:38:10.565Z,8.20
2022-09-25T03:40:38.621Z,8.10
2022-09-25T03:45:33.523Z,8.10
2022-09-25T03:48:01.631Z,8.10
2022-09-25T03:50:29.564Z,8.00
2022-09-25T03:52:58.856Z,8.00
2022-09-25T03:55:27.048Z,7.90
2022-09-25T03:57:54.956Z,7.90
2022-09-25T04:00:24.048Z,7.90
2022-09-25T04:02:52.212Z,7.80
2022-09-25T04:05:21.697Z,7.80
2022-09-25T04:07:49.643Z,7.80
2022-09-25T04:10:18.989Z,7.80
2022-09-25T04:12:47.371Z,7.80
2022-09-25T04:15:15.328Z,7.70
2022-09-25T04:17:43.222Z,7.70
2022-09-25T04:20:11.255Z,7.70
2022-09-25T04:22:39.171Z,7.60
2022-09-25T04:25:07.599Z,7.60
2022-09-25T04:27:37.660Z,7.50
2022-09-25T04:30:06.358Z,7.40
2022-09-25T04:32:51.569Z,7.40
2022-09-25T04:35:19.462Z,7.40
2022-09-25T04:37:47.362Z,7.30
2022-09-25T04:40:15.505Z,7.30
2022-09-25T04:42:44.811Z,7.40
2022-09-25T04:45:12.691Z,7.40
2022-09-25T04:47:40.620Z,7.30
2022-09-25T04:50:09.518Z,7.30
2022-09-25T04:52:37.503Z,7.30
2022-09-25T04:55:06.574Z,7.30
2022-09-25T04:57:57.312Z,7.30
2022-09-25T05:00:25.780Z,7.30
2022-09-25T05:02:53.996Z,7.30
2022-09-25T05:05:22.317Z,7.20
2022-09-25T05:07:54.084Z,7.20
2022-09-25T05:10:22.175Z,7.20
2022-09-25T05:12:55.220Z,7.20
2022-09-25T05:15:24.614Z,7.10
2022-09-25T05:17:59.999Z,7.00
2022-09-25T05:20:28.158Z,6.90
2022-09-25T05:22:57.081Z,6.90
2022-09-25T05:25:25.476Z,6.90
2022-09-25T05:27:55.837Z,6.90
2022-09-25T05:30:25.421Z,6.90
2022-09-25T05:32:54.102Z,6.90
2022-09-25T05:35:23.953Z,6.90
2022-09-25T05:37:52.130Z,6.90
2022-09-25T05:40:21.943Z,6.80
2022-09-25T05:42:50.131Z,6.80
2022-09-25T05:45:19.817Z,6.90
2022-09-25T05:47:49.250Z,6.90
2022-09-25T05:50:18.230Z,6.80
2022-09-25T05:52:46.206Z,6.90
2022-09-25T05:55:14.128Z,6.90
2022-09-25T05:57:42.044Z,6.90
2022-09-25T06:00:12.412Z,7.00
2022-09-25T06:02:40.647Z,7.00
2022-09-25T06:05:10.798Z,7.10
2022-09-25T06:07:38.914Z,7.10
2022-09-25T06:10:07.934Z,7.10
2022-09-25T06:12:35.854Z,7.20
2022-09-25T06:15:04.148Z,7.30
2022-09-25T06:17:32.095Z,7.30
2022-09-25T06:19:59.991Z,7.40
2022-09-25T06:22:29.345Z,7.50
2022-09-25T06:24:57.227Z,7.50
2022-09-25T06:27:25.235Z,7.50
2022-09-25T06:29:53.142Z,7.60
2022-09-25T06:32:23.246Z,7.60
2022-09-25T06:34:51.215Z,7.70
2022-09-25T06:37:19.152Z,7.80
2022-09-25T06:39:48.460Z,7.90
2022-09-25T06:42:16.362Z,7.90
2022-09-25T06:44:44.873Z,8.10
2022-09-25T06:47:18.309Z,8.10
2022-09-25T06:49:47.206Z,8.20
2022-09-25T06:52:15.183Z,8.30
2022-09-25T06:54:44.317Z,8.30
2022-09-25T06:57:14.145Z,8.40
2022-09-25T06:59:42.127Z,8.50
2022-09-25T07:02:24.691Z,8.50
2022-09-25T07:04:52.727Z,8.60
2022-09-25T07:07:21.026Z,8.70
2022-09-25T07:09:49.286Z,8.70
2022-09-25T07:12:18.651Z,8.80
2022-09-25T07:14:47.591Z,8.80
2022-09-25T07:17:15.576Z,8.90
2022-09-25T07:19:43.431Z,8.90
2022-09-25T07:22:12.632Z,9.00
2022-09-25T07:24:40.563Z,9.10
2022-09-25T07:27:08.560Z,9.10
2022-09-25T07:29:38.009Z,9.20
2022-09-25T07:32:05.961Z,9.30
2022-09-25T07:34:36.105Z,9.30
2022-09-25T07:37:04.393Z,9.30
2022-09-25T07:39:32.315Z,9.40
2022-09-25T07:42:00.229Z,9.50
2022-09-25T07:44:31.448Z,9.60
2022-09-25T07:47:05.582Z,9.60
2022-09-25T07:49:33.510Z,9.70
2022-09-25T07:52:01.799Z,9.70
2022-09-25T07:54:29.851Z,9.80
2022-09-25T07:56:58.666Z,9.90
2022-09-25T07:59:26.567Z,9.90
2022-09-25T08:01:54.904Z,10.00
2022-09-25T08:04:24.228Z,10.00
2022-09-25T08:06:52.142Z,10.10
2022-09-25T08:09:20.073Z,10.20
2022-09-25T08:11:48.074Z,10.20
2022-09-25T08:14:16.478Z,10.30
2022-09-25T08:16:44.539Z,10.40
2022-09-25T08:19:12.925Z,10.40
2022-09-25T08:21:42.206Z,10.50
2022-09-25T08:24:10.636Z,10.60
2022-09-25T08:26:38.711Z,10.70
2022-09-25T08:29:08.493Z,10.80
2022-09-25T08:31:36.702Z,10.80
2022-09-25T08:34:28.143Z,10.90
2022-09-25T08:36:54.404Z,10.90
2022-09-25T08:39:22.321Z,11.10
2022-09-25T08:41:54.137Z,11.10
2022-09-25T08:44:27.585Z,11.20
2022-09-25T08:47:19.699Z,11.30
2022-09-25T08:49:52.462Z,11.40
2022-09-25T08:52:22.870Z,11.40
2022-09-25T08:54:52.274Z,11.50
2022-09-25T08:57:29.734Z,11.60
2022-09-25T09:00:03.071Z,11.70
2022-09-25T09:02:40.826Z,11.80
2022-09-25T09:05:18.240Z,11.80
2022-09-25T09:07:54.757Z,11.90
2022-09-25T09:10:31.188Z,12.00
2022-09-25T09:13:02.873Z,12.10
2022-09-25T09:15:36.771Z,12.20
2022-09-25T09:18:18.594Z,12.30
2022-09-25T09:20:52.554Z,12.30
2022-09-25T09:23:23.496Z,12.40
2022-09-25T09:26:06.504Z,12.40
2022-09-25T09:29:01.914Z,12.40
2022-09-25T09:31:38.697Z,12.70
2022-09-25T09:34:46.539Z,12.80
2022-09-25T09:37:22.349Z,13.10
2022-09-25T09:40:04.445Z,13.30
2022-09-25T09:42:38.522Z,13.60
2022-09-25T09:45:17.721Z,14.00
2022-09-25T09:47:56.875Z,14.30
2022-09-25T09:50:42.500Z,14.50
2022-09-25T09:53:22.351Z,14.40
2022-09-25T09:55:58.043Z,14.40
2022-09-25T09:58:34.847Z,14.20
2022-09-25T10:01:28.928Z,14.30
2022-09-25T10:04:05.622Z,14.50
2022-09-25T10:06:40.915Z,14.70
2022-09-25T10:09:18.984Z,14.60
2022-09-25T10:12:01.709Z,14.50
2022-09-25T10:14:40.036Z,14.30
2022-09-25T10:18:03.663Z,14.10
2022-09-25T10:21:43.522Z,14.00
2022-09-25T10:31:42.515Z,14.80
2022-09-25T10:38:33.589Z,14.50
2022-09-25T10:41:30.546Z,14.70
2022-09-25T10:44:07.862Z,14.70
2022-09-25T10:47:02.320Z,14.90
2022-09-25T10:49:59.465Z,14.90
2022-09-25T10:52:29.840Z,15.00
2022-09-25T10:55:22.404Z,15.10
2022-09-25T10:57:50.505Z,15.30
2022-09-25T11:00:24.047Z,15.50
2022-09-25T11:02:56.334Z,15.70
2022-09-25T11:05:29.546Z,16.10
2022-09-25T11:08:01.790Z,16.20
2022-09-25T11:10:34.412Z,16.40
2022-09-25T11:13:09.405Z,16.30
2022-09-25T11:15:39.247Z,16.20
2022-09-25T11:18:27.566Z,15.80
2022-09-25T11:21:04.871Z,15.50
2022-09-25T11:23:37.647Z,15.00
2022-09-25T11:26:10.440Z,14.70
2022-09-25T11:28:42.109Z,14.70
2022-09-25T11:31:18.761Z,14.90
2022-09-25T11:33:51.506Z,15.10
2022-09-25T11:36:26.207Z,15.20
2022-09-25T11:39:14.186Z,15.50
2022-09-25T11:41:45.992Z,15.80
2022-09-25T11:44:27.475Z,16.00
2022-09-25T11:47:04.743Z,16.20
2022-09-25T11:49:36.063Z,16.40
2022-09-25T11:52:40.116Z,16.70
2022-09-25T11:55:43.471Z,17.10
2022-09-25T11:58:31.832Z,16.90
2022-09-25T12:01:11.483Z,16.80
2022-09-25T12:03:56.942Z,16.70
2022-09-25T12:06:48.971Z,16.60
2022-09-25T12:09:31.338Z,16.40
2022-09-25T12:12:07.331Z,16.30
2022-09-25T12:14:45.518Z,16.30
2022-09-25T12:17:20.236Z,16.20
2022-09-25T12:19:54.840Z,16.10
2022-09-25T12:22:29.092Z,16.00
2022-09-25T12:25:10.052Z,16.10
2022-09-25T12:27:47.428Z,16.10
2022-09-25T12:30:19.826Z,16.00
2022-09-25T12:33:23.058Z,15.80
2022-09-25T12:35:58.025Z,15.70
2022-09-25T12:38:37.757Z,15.50
2022-09-25T12:41:16.377Z,15.20
2022-09-25T12:43:51.950Z,15.10
2022-09-25T12:46:27.111Z,15.00
2022-09-25T12:49:01.227Z,15.10
2022-09-25T12:51:35.552Z,15.30
2022-09-25T12:54:08.203Z,15.50
2022-09-25T12:56:45.153Z,15.70
2022-09-25T12:59:17.677Z,15.90
2022-09-25T13:01:52.821Z,16.00
2022-09-25T13:04:38.981Z,16.20
2022-09-25T13:07:16.521Z,16.60
2022-09-25T13:09:46.193Z,16.90
2022-09-25T13:12:25.946Z,17.10
2022-09-25T13:14:56.690Z,16.80
2022-09-25T13:17:24.968Z,16.30
2022-09-25T13:19:53.444Z,16.20
2022-09-25T13:22:25.439Z,16.10
2022-09-25T13:24:58.562Z,16.00
2022-09-25T13:27:35.319Z,16.00
2022-09-25T13:30:06.905Z,16.30
2022-09-25T13:32:35.652Z,16.40
2022-09-25T13:35:07.644Z,16.30
2022-09-25T13:37:39.206Z,16.40
2022-09-25T13:40:35.361Z,16.40
2022-09-25T13:43:22.390Z,16.50
2022-09-25T13:46:10.321Z,16.30
2022-09-25T13:48:38.737Z,16.20
2022-09-25T13:51:27.730Z,16.20
2022-09-25T13:53:59.953Z,15.80
2022-09-25T13:56:30.439Z,15.90
2022-09-25T13:59:42.500Z,16.10
2022-09-25T14:02:46.414Z,16.00
2022-09-25T14:05:18.100Z,15.70
2022-09-25T14:07:49.418Z,15.60
2022-09-25T14:10:18.994Z,15.50
2022-09-25T14:12:48.802Z,15.50
2022-09-25T14:15:30.124Z,15.50
2022-09-25T14:18:00.911Z,15.40
2022-09-25T14:20:38.264Z,15.30
2022-09-25T14:23:17.535Z,15.30
2022-09-25T14:25:46.981Z,15.10
2022-09-25T14:28:22.289Z,15.00
2022-09-25T14:31:06.952Z,15.00
2022-09-25T14:34:01.572Z,15.00
2022-09-25T14:36:39.312Z,15.00
2022-09-25T14:39:30.261Z,15.20
2022-09-25T14:42:31.953Z,15.40
2022-09-25T14:45:23.425Z,15.50
2022-09-25T14:47:57.157Z,15.50
2022-09-25T14:50:28.980Z,15.50
2022-09-25T14:53:00.088Z,15.50
2022-09-25T14:55:34.307Z,15.50
2022-09-25T14:58:05.062Z,15.50
2022-09-25T15:00:33.572Z,15.50
2022-09-25T15:03:03.715Z,15.50
2022-09-25T15:05:34.980Z,15.60
2022-09-25T15:08:04.145Z,15.50
2022-09-25T15:10:34.825Z,15.50
2022-09-25T15:13:15.822Z,15.60
2022-09-25T15:16:05.432Z,15.50
2022-09-25T15:18:37.291Z,15.50
2022-09-25T15:21:08.638Z,15.70
2022-09-25T15:23:38.457Z,15.70
2022-09-25T15:26:06.870Z,15.70
2022-09-25T15:28:39.947Z,15.70
2022-09-25T15:31:08.362Z,15.40
2022-09-25T15:33:40.092Z,15.40
2022-09-25T15:36:17.810Z,15.40
2022-09-25T15:38:52.839Z,15.50
2022-09-25T15:41:23.660Z,15.40
2022-09-25T15:43:53.509Z,15.50
2022-09-25T15:46:36.168Z,15.50
2022-09-25T15:49:06.728Z,15.40
2022-09-25T15:51:37.233Z,15.40
2022-09-25T15:54:30.852Z,15.30
2022-09-25T15:57:01.587Z,15.20
2022-09-25T15:59:33.938Z,15.20
2022-09-25T16:02:35.643Z,15.10
2022-09-25T16:05:09.943Z,15.10
2022-09-25T16:07:39.368Z,15.00
2022-09-25T16:10:30.908Z,15.00
2022-09-25T16:12:59.089Z,15.00
2022-09-25T16:15:46.892Z,15.00
2022-09-25T16:18:34.832Z,15.00
2022-09-25T16:21:18.224Z,14.90
2022-09-25T16:23:56.122Z,14.90
2022-09-25T16:26:27.329Z,14.80
2022-09-25T16:29:05.961Z,14.70
2022-09-25T16:31:36.102Z,14.50
2022-09-25T16:34:05.677Z,14.40
2022-09-25T16:36:42.823Z,14.30
2022-09-25T16:39:26.750Z,14.20
2022-09-25T16:41:55.421Z,14.20
2022-09-25T16:44:36.813Z,14.20
2022-09-25T16:47:17.815Z,14.00
2022-09-25T16:49:45.991Z,14.00
2022-09-25T16:52:21.817Z,14.00
2022-09-25T16:55:10.150Z,13.90
2022-09-25T16:57:42.462Z,13.90
2022-09-25T17:00:19.208Z,13.70
2022-09-25T17:02:48.692Z,13.60
2022-09-25T17:05:20.753Z,13.50
2022-09-25T17:07:52.034Z,13.30
2022-09-25T17:10:21.981Z,13.20
2022-09-25T17:12:53.966Z,13.10
2022-09-25T17:15:25.918Z,12.90
2022-09-25T17:17:55.033Z,12.80
2022-09-25T17:20:24.222Z,12.70
2022-09-25T17:22:54.344Z,12.70
2022-09-25T17:25:40.743Z,12.70
2022-09-25T17:28:10.536Z,12.60
2022-09-25T17:30:39.648Z,12.50
2022-09-25T17:33:13.354Z,12.40
2022-09-25T17:35:45.815Z,12.30
2022-09-25T17:38:15.168Z,12.20
2022-09-25T17:40:45.426Z,12.10
2022-09-25T17:43:15.138Z,12.00
2022-09-25T17:45:48.607Z,11.90
2022-09-25T17:48:16.670Z,11.90
2022-09-25T17:50:46.419Z,12.10
2022-09-25T17:53:21.250Z,12.20
2022-09-25T17:55:53.406Z,12.20
2022-09-25T17:58:23.401Z,12.20
2022-09-25T18:00:52.609Z,12.10
2022-09-25T18:03:21.983Z,12.10
2022-09-25T18:05:50.331Z,12.00
2022-09-25T18:08:19.877Z,11.90
2022-09-25T18:10:48.849Z,11.90
2022-09-25T18:13:20.175Z,11.90
2022-09-25T18:15:50.822Z,11.90
2022-09-25T18:18:18.784Z,11.90
2022-09-25T18:21:08.961Z,11.90
2022-09-25T18:23:39.090Z,11.80
2022-09-25T18:26:09.285Z,11.80
2022-09-25T18:28:37.262Z,11.70
2022-09-25T18:31:05.382Z,11.60
2022-09-25T18:33:33.371Z,11.50
2022-09-25T18:36:01.387Z,11.40
2022-09-25T18:38:31.415Z,11.40
2022-09-25T18:41:03.569Z,11.20
2022-09-25T18:43:31.853Z,11.00
2022-09-25T18:46:01.106Z,10.90
2022-09-25T18:48:29.321Z,10.80
2022-09-25T18:50:57.312Z,10.70
2022-09-25T18:53:25.625Z,10.70
2022-09-25T18:55:54.893Z,10.60
2022-09-25T18:58:24.189Z,10.60
2022-09-25T19:00:52.296Z,10.60
2022-09-25T19:03:20.181Z,10.60
2022-09-25T19:05:58.209Z,10.60
2022-09-25T19:08:26.262Z,10.70
2022-09-25T19:10:54.352Z,10.70
2022-09-25T19:13:23.943Z,10.80
2022-09-25T19:15:51.990Z,10.80
2022-09-25T19:18:20.001Z,10.80
2022-09-25T19:20:51.667Z,10.80
2022-09-25T19:23:19.695Z,10.80
2022-09-25T19:25:54.120Z,10.80
2022-09-25T19:28:23.935Z,10.80
2022-09-25T19:31:05.051Z,10.90
2022-09-25T19:33:34.781Z,10.90
2022-09-25T19:36:05.138Z,10.90
2022-09-25T19:38:34.685Z,10.80
2022-09-25T19:41:03.083Z,10.70
2022-09-25T19:43:35.543Z,10.60
2022-09-25T19:46:06.044Z,10.60
2022-09-25T19:48:34.084Z,10.50
2022-09-25T19:51:07.236Z,10.40
2022-09-25T19:53:35.974Z,10.30
2022-09-25T19:56:04.641Z,10.30
2022-09-25T19:58:38.180Z,10.20
2022-09-25T20:01:13.049Z,10.10
2022-09-25T20:03:42.020Z,10.00
2022-09-25T20:06:11.559Z,9.90
2022-09-25T20:08:40.094Z,9.90
2022-09-25T20:11:16.823Z,9.90
2022-09-25T20:13:45.356Z,9.90
2022-09-25T20:16:16.772Z,9.90
2022-09-25T20:18:48.361Z,9.90
2022-09-25T20:21:17.506Z,9.90
2022-09-25T20:23:46.119Z,10.00
2022-09-25T20:26:16.692Z,10.00
2022-09-25T20:28:46.384Z,10.10
2022-09-25T20:31:16.612Z,10.10
2022-09-25T20:33:44.637Z,10.10
2022-09-25T20:36:13.885Z,10.10
2022-09-25T20:38:42.208Z,10.10
2022-09-25T20:41:12.157Z,10.10
2022-09-25T20:43:40.657Z,10.10
2022-09-25T20:46:12.497Z,10.00
2022-09-25T20:48:44.788Z,9.90
2022-09-25T20:51:15.166Z,9.90
2022-09-25T20:53:44.146Z,9.90
2022-09-25T20:56:13.663Z,9.90
2022-09-25T20:58:43.154Z,10.00
2022-09-25T21:01:13.338Z,10.10
2022-09-25T21:03:44.551Z,10.10
2022-09-25T21:06:14.308Z,10.20
2022-09-25T21:08:42.456Z,10.30
2022-09-25T21:11:11.755Z,10.30
2022-09-25T21:13:41.397Z,10.40
2022-09-25T21:16:11.189Z,10.30
2022-09-25T21:18:40.798Z,10.40
2022-09-25T21:21:12.145Z,10.30
2022-09-25T21:23:40.388Z,10.30
2022-09-25T21:26:11.042Z,10.40
2022-09-25T21:28:40.312Z,10.30
2022-09-25T21:31:11.052Z,10.20
2022-09-25T21:33:39.256Z,10.10
2022-09-25T21:36:10.128Z,10.10
2022-09-25T21:38:38.263Z,10.10
2022-09-25T21:41:08.013Z,9.90
2022-09-25T21:43:36.653Z,9.90
2022-09-25T21:46:08.072Z,9.70
2022-09-25T21:48:36.757Z,9.60
2022-09-25T21:51:07.182Z,9.50
2022-09-25T21:53:37.743Z,9.40
2022-09-25T21:56:07.857Z,9.40
2022-09-25T21:58:36.870Z,9.30
2022-09-25T22:01:07.247Z,9.30
2022-09-25T22:03:38.817Z,9.30
2022-09-25T22:06:10.762Z,9.20
2022-09-25T22:08:42.664Z,9.20
2022-09-25T22:11:11.698Z,9.20
2022-09-25T22:13:41.612Z,9.20
2022-09-25T22:16:11.855Z,9.20
2022-09-25T22:18:44.497Z,9.20
2022-09-25T22:21:14.465Z,9.30
2022-09-25T22:23:44.520Z,9.30
2022-09-25T22:26:14.146Z,9.30
2022-09-25T22:28:42.874Z,9.20
2022-09-25T22:31:13.183Z,9.20
2022-09-25T22:33:41.751Z,9.20
2022-09-25T22:36:11.440Z,9.20
2022-09-25T22:38:40.416Z,9.20
2022-09-25T22:41:11.416Z,9.20
2022-09-25T22:43:39.923Z,9.20
2022-09-25T22:46:09.598Z,9.20
2022-09-25T22:48:38.533Z,9.20
2022-09-25T22:51:09.028Z,9.30
2022-09-25T22:53:37.605Z,9.30
2022-09-25T22:56:11.780Z,9.40
2022-09-25T22:58:40.251Z,9.50
2022-09-25T23:01:12.629Z,9.50
2022-09-25T23:03:40.682Z,9.60
2022-09-25T23:06:09.427Z,9.70
2022-09-25T23:08:37.639Z,9.70
2022-09-25T23:11:08.078Z,9.70
2022-09-25T23:13:37.971Z,9.70
2022-09-25T23:16:07.538Z,9.70
2022-09-25T23:18:36.736Z,9.70
2022-09-25T23:21:05.336Z,9.70
2022-09-25T23:23:33.915Z,9.80
2022-09-25T23:26:03.510Z,9.80
2022-09-25T23:28:34.502Z,9.80
2022-09-25T23:31:08.629Z,9.80
2022-09-25T23:33:37.454Z,9.80
2022-09-25T23:36:07.302Z,9.80
2022-09-25T23:38:36.102Z,9.80
2022-09-25T23:41:15.947Z,9.80
2022-09-25T23:43:44.693Z,9.80
2022-09-25T23:46:15.522Z,9.80
2022-09-25T23:48:44.896Z,9.70
2022-09-25T23:51:13.127Z,9.70
2022-09-25T23:53:42.526Z,9.70
2022-09-25T23:56:12.472Z,9.60
2022-09-25T23:58:41.465Z,9.60
